createdAt,value
2023-02-25T00:02:03.772Z,9.39
2023-02-25T00:04:32.370Z,9.39
2023-02-25T00:07:00.326Z,9.40
2023-02-25T00:09:28.083Z,9.40
2023-02-25T00:11:57.327Z,9.37
2023-02-25T00:14:25.064Z,9.38
2023-02-25T00:16:55.959Z,9.36
2023-02-25T00:19:23.773Z,9.30
2023-02-25T00:21:51.586Z,9.33
2023-02-25T00:24:19.236Z,9.34
2023-02-25T00:26:46.945Z,9.33
2023-02-25T00:29:16.011Z,9.13
2023-02-25T00:31:44.030Z,9.34
2023-02-25T00:34:11.872Z,9.36
2023-02-25T00:39:14.010Z,9.40
2023-02-25T00:41:41.786Z,9.41
2023-02-25T00:44:09.636Z,9.33
2023-02-25T00:46:38.735Z,9.41
2023-02-25T00:49:06.870Z,9.40
2023-02-25T00:51:34.703Z,9.41
2023-02-25T00:54:02.490Z,9.41
2023-02-25T00:56:30.240Z,9.41
2023-02-25T00:58:59.342Z,9.39
2023-02-25T01:01:27.759Z,9.01
2023-02-25T01:03:57.619Z,9.28
2023-02-25T01:06:25.883Z,9.31
2023-02-25T01:08:54.033Z,9.10
2023-02-25T01:11:27.661Z,9.06
2023-02-25T01:13:56.664Z,9.21
2023-02-25T01:16:26.188Z,8.96
2023-02-25T01:18:54.110Z,9.37
2023-02-25T01:21:26.430Z,9.36
2023-02-25T01:23:58.329Z,9.13
2023-02-25T01:26:26.402Z,9.22
2023-02-25T01:28:54.223Z,9.38
2023-02-25T01:31:24.921Z,9.38
2023-02-25T01:33:52.820Z,9.36
2023-02-25T01:36:20.927Z,9.38
2023-02-25T01:38:50.322Z,9.41
2023-02-25T01:41:18.067Z,9.19
2023-02-25T01:44:06.101Z,9.44
2023-02-25T01:46:33.836Z,9.15
2023-02-25T01:49:01.858Z,9.16
2023-02-25T01:51:29.547Z,9.36
2023-02-25T01:53:59.863Z,9.08
2023-02-25T01:56:27.571Z,9.45
2023-02-25T01:58:55.458Z,9.47
2023-02-25T02:01:24.312Z,9.49
2023-02-25T02:03:52.077Z,9.50
2023-02-25T02:06:21.240Z,9.49
2023-02-25T02:08:49.502Z,9.48
2023-02-25T02:11:18.603Z,9.43
2023-02-25T02:13:48.629Z,9.37
2023-02-25T02:16:23.853Z,9.43
2023-02-25T02:18:53.490Z,9.17
2023-02-25T02:21:39.277Z,9.12
2023-02-25T02:24:36.253Z,9.30
2023-02-25T02:27:08.536Z,9.07
2023-02-25T02:30:05.583Z,9.25
2023-02-25T02:32:36.852Z,9.39
2023-02-25T02:35:09.381Z,9.28
2023-02-25T02:37:41.320Z,9.37
2023-02-25T02:40:19.901Z,9.40
2023-02-25T02:42:54.844Z,9.39
2023-02-25T02:45:23.715Z,9.42
2023-02-25T02:47:55.023Z,9.38
2023-02-25T02:50:25.701Z,9.42
2023-02-25T02:52:55.019Z,9.40
2023-02-25T02:55:24.292Z,9.42
2023-02-25T02:57:53.213Z,9.33
2023-02-25T03:00:26.484Z,9.34
2023-02-25T03:02:57.515Z,9.29
2023-02-25T03:05:26.483Z,9.26
2023-02-25T03:08:07.849Z,9.12
2023-02-25T03:10:35.603Z,9.37
2023-02-25T03:13:04.760Z,9.22
2023-02-25T03:15:32.405Z,9.30
2023-02-25T03:18:03.320Z,9.28
2023-02-25T03:20:34.700Z,9.29
2023-02-25T03:23:07.329Z,9.21
2023-02-25T03:25:36.837Z,9.30
2023-02-25T03:28:06.457Z,9.31
2023-02-25T03:30:36.516Z,8.99
2023-02-25T03:33:11.146Z,9.11
2023-02-25T03:35:39.807Z,9.28
2023-02-25T03:38:09.236Z,9.27
2023-02-25T03:40:37.232Z,9.26
2023-02-25T03:43:08.577Z,9.28
2023-02-25T03:45:36.550Z,9.09
2023-02-25T03:48:06.477Z,9.26
2023-02-25T03:50:35.470Z,9.25
2023-02-25T03:53:03.278Z,9.18
2023-02-25T03:55:30.999Z,9.26
2023-02-25T03:57:58.787Z,9.08
2023-02-25T04:00:27.863Z,9.21
2023-02-25T04:02:55.624Z,9.08
2023-02-25T04:05:27.676Z,9.08
2023-02-25T04:07:55.864Z,8.95
2023-02-25T04:10:23.563Z,9.08
2023-02-25T04:12:52.134Z,8.90
2023-02-25T04:15:20.259Z,8.90
2023-02-25T04:17:48.076Z,9.08
2023-02-25T04:20:16.918Z,9.17
2023-02-25T04:22:46.278Z,9.17
2023-02-25T04:25:14.336Z,9.19
2023-02-25T04:27:42.059Z,9.20
2023-02-25T04:30:11.355Z,9.20
2023-02-25T04:32:39.280Z,9.20
2023-02-25T04:35:11.603Z,9.21
2023-02-25T04:37:39.358Z,9.20
2023-02-25T04:40:12.112Z,9.11
2023-02-25T04:42:39.833Z,8.97
2023-02-25T04:45:08.807Z,8.95
2023-02-25T04:47:36.488Z,9.17
2023-02-25T04:50:04.506Z,9.00
2023-02-25T04:52:32.217Z,9.12
2023-02-25T04:55:00.126Z,9.06
2023-02-25T04:57:29.206Z,9.06
2023-02-25T04:59:57.086Z,9.09
2023-02-25T05:02:24.790Z,9.20
2023-02-25T05:04:52.651Z,9.00
2023-02-25T05:07:20.378Z,9.21
2023-02-25T05:09:48.335Z,9.17
2023-02-25T05:12:16.274Z,9.20
2023-02-25T05:14:45.551Z,9.12
2023-02-25T05:17:15.825Z,9.19
2023-02-25T05:19:43.989Z,9.19
2023-02-25T05:22:11.734Z,9.20
2023-02-25T05:24:39.537Z,9.06
2023-02-25T05:27:09.170Z,9.21
2023-02-25T05:29:37.133Z,9.21
2023-02-25T05:32:07.726Z,9.15
2023-02-25T05:34:36.386Z,9.18
2023-02-25T05:37:04.746Z,9.06
2023-02-25T05:39:32.471Z,9.16
2023-02-25T05:42:01.421Z,9.16
2023-02-25T05:44:29.085Z,9.17
2023-02-25T05:46:59.877Z,8.98
2023-02-25T05:49:29.577Z,9.17
2023-02-25T05:51:57.402Z,9.20
2023-02-25T05:54:25.294Z,9.23
2023-02-25T05:56:53.570Z,9.12
2023-02-25T05:59:21.297Z,9.25
2023-02-25T06:01:49.422Z,9.25
2023-02-25T06:04:17.104Z,9.23
2023-02-25T06:06:50.210Z,8.91
2023-02-25T06:09:19.635Z,9.19
2023-02-25T06:11:47.989Z,9.18
2023-02-25T06:14:15.794Z,9.21
2023-02-25T06:16:44.569Z,9.18
2023-02-25T06:19:12.827Z,9.20
2023-02-25T06:21:41.146Z,8.98
2023-02-25T06:24:11.212Z,9.19
2023-02-25T06:26:41.847Z,9.23
2023-02-25T06:29:10.475Z,9.20
2023-02-25T06:31:38.582Z,9.23
2023-02-25T06:34:06.745Z,8.98
2023-02-25T06:36:34.482Z,9.20
2023-02-25T06:41:31.385Z,9.14
2023-02-25T06:44:01.458Z,9.26
2023-02-25T06:46:29.454Z,9.26
2023-02-25T06:48:57.306Z,9.19
2023-02-25T06:51:25.814Z,8.89
2023-02-25T06:53:53.847Z,9.00
2023-02-25T06:56:22.635Z,9.29
2023-02-25T06:58:53.266Z,9.17
2023-02-25T07:01:22.426Z,9.33
2023-02-25T07:03:51.121Z,9.35
2023-02-25T07:06:19.108Z,9.33
2023-02-25T07:08:46.931Z,9.39
2023-02-25T07:11:15.640Z,9.10
2023-02-25T07:13:44.326Z,9.44
2023-02-25T07:19:06.763Z,9.52
2023-02-25T07:21:34.537Z,9.16
2023-02-25T07:24:02.372Z,9.54
2023-02-25T07:26:30.212Z,9.36
2023-02-25T07:28:58.168Z,9.57
2023-02-25T07:31:32.658Z,9.58
2023-02-25T07:34:03.424Z,9.65
2023-02-25T07:36:33.015Z,9.71
2023-02-25T07:39:02.112Z,9.73
2023-02-25T07:41:30.048Z,9.78
2023-02-25T07:43:57.832Z,9.80
2023-02-25T07:46:26.167Z,9.82
2023-02-25T07:49:02.420Z,9.81
2023-02-25T07:51:30.121Z,9.84
2023-02-25T07:53:58.483Z,9.67
2023-02-25T07:56:27.718Z,9.91
2023-02-25T07:58:55.468Z,9.97
2023-02-25T08:01:26.407Z,9.87
2023-02-25T08:03:55.211Z,9.94
2023-02-25T08:06:24.375Z,9.86
2023-02-25T08:08:55.199Z,9.63
2023-02-25T08:11:23.912Z,9.69
2023-02-25T08:13:52.302Z,9.72
2023-02-25T08:16:20.964Z,9.56
2023-02-25T08:18:48.832Z,9.72
2023-02-25T08:21:18.331Z,9.63
2023-02-25T08:23:49.702Z,9.73
2023-02-25T08:26:18.445Z,9.76
2023-02-25T08:28:46.478Z,9.67
2023-02-25T08:31:14.685Z,9.46
2023-02-25T08:33:43.372Z,9.34
2023-02-25T08:36:11.919Z,9.66
2023-02-25T08:38:39.784Z,9.59
2023-02-25T08:41:08.879Z,9.61
2023-02-25T08:43:37.114Z,9.63
2023-02-25T08:46:06.337Z,9.71
2023-02-25T08:48:34.242Z,9.70
2023-02-25T08:51:04.009Z,9.76
2023-02-25T08:53:31.784Z,9.67
2023-02-25T08:56:03.382Z,9.76
2023-02-25T08:58:32.680Z,9.81
2023-02-25T09:01:00.467Z,9.89
2023-02-25T09:03:28.902Z,9.94
2023-02-25T09:05:57.207Z,9.85
2023-02-25T09:08:25.078Z,10.09
2023-02-25T09:10:52.827Z,10.11
2023-02-25T09:13:23.922Z,10.00
2023-02-25T09:18:43.656Z,10.49
2023-02-25T09:21:14.900Z,10.77
2023-02-25T09:23:42.775Z,11.00
2023-02-25T09:26:25.759Z,11.09
2023-02-25T09:28:53.455Z,11.10
2023-02-25T09:31:23.228Z,11.05
2023-02-25T09:33:52.087Z,10.99
2023-02-25T09:36:20.978Z,10.98
2023-02-25T09:38:49.680Z,11.09
2023-02-25T09:41:23.948Z,11.00
2023-02-25T09:44:00.983Z,11.07
2023-02-25T09:46:30.288Z,10.72
2023-02-25T09:49:00.273Z,10.59
2023-02-25T09:51:29.358Z,10.89
2023-02-25T09:59:21.540Z,10.75
2023-02-25T10:01:53.172Z,10.67
2023-02-25T10:04:25.648Z,10.53
2023-02-25T10:06:55.906Z,10.51
2023-02-25T10:09:29.221Z,10.45
2023-02-25T10:12:02.277Z,10.40
2023-02-25T10:14:43.514Z,10.38
2023-02-25T10:17:16.286Z,10.40
2023-02-25T10:19:52.300Z,10.47
2023-02-25T10:22:28.470Z,10.28
2023-02-25T10:24:58.077Z,10.59
2023-02-25T10:27:28.470Z,10.75
2023-02-25T10:29:58.189Z,10.97
2023-02-25T10:32:28.223Z,11.10
2023-02-25T10:34:58.098Z,11.21
2023-02-25T10:37:28.287Z,11.50
2023-02-25T10:39:57.169Z,12.31
2023-02-25T10:42:26.120Z,12.75
2023-02-25T10:44:53.866Z,12.66
2023-02-25T10:47:30.284Z,12.71
2023-02-25T10:50:29.792Z,13.16
2023-02-25T10:53:13.465Z,12.90
2023-02-25T10:55:51.882Z,13.03
2023-02-25T10:58:28.418Z,12.81
2023-02-25T11:01:01.011Z,12.57
2023-02-25T11:03:30.890Z,12.42
2023-02-25T11:06:10.981Z,12.21
2023-02-25T11:08:39.187Z,12.08
2023-02-25T11:11:13.386Z,11.92
2023-02-25T11:13:41.715Z,12.46
2023-02-25T11:16:10.861Z,12.55
2023-02-25T11:18:39.337Z,12.58
2023-02-25T11:21:09.597Z,12.44
2023-02-25T11:23:46.332Z,12.07
2023-02-25T11:26:16.499Z,11.90
2023-02-25T11:28:46.039Z,11.58
2023-02-25T11:31:17.390Z,11.47
2023-02-25T11:33:46.887Z,11.36
2023-02-25T11:36:23.550Z,10.99
2023-02-25T11:38:51.847Z,11.44
2023-02-25T11:41:23.147Z,11.01
2023-02-25T11:43:51.174Z,11.28
2023-02-25T11:46:24.165Z,11.13
2023-02-25T11:48:53.402Z,10.97
2023-02-25T11:51:26.298Z,10.90
2023-02-25T11:54:07.600Z,10.98
2023-02-25T11:56:36.634Z,11.52
2023-02-25T11:59:15.968Z,11.60
2023-02-25T12:01:53.410Z,11.63
2023-02-25T12:04:36.952Z,13.29
2023-02-25T12:07:17.201Z,16.73
2023-02-25T12:10:17.603Z,19.83
2023-02-25T12:13:16.504Z,22.50
2023-02-25T12:16:17.484Z,24.52
2023-02-25T12:19:05.407Z,23.84
2023-02-25T12:22:05.619Z,21.67
2023-02-25T12:24:53.830Z,19.39
2023-02-25T12:27:58.807Z,17.37
2023-02-25T12:30:49.866Z,16.86
2023-02-25T12:33:26.246Z,16.80
2023-02-25T12:36:04.760Z,16.35
2023-02-25T12:41:18.643Z,15.21
2023-02-25T12:43:49.728Z,14.99
2023-02-25T12:46:45.738Z,14.71
2023-02-25T12:49:27.791Z,14.39
2023-02-25T12:52:25.097Z,14.53
2023-02-25T12:55:25.208Z,14.40
2023-02-25T12:58:09.163Z,14.37
2023-02-25T13:00:45.834Z,14.29
2023-02-25T13:03:24.366Z,14.26
2023-02-25T13:06:01.420Z,14.12
2023-02-25T13:08:38.892Z,14.03
2023-02-25T13:11:11.051Z,14.03
2023-02-25T13:14:02.950Z,14.01
2023-02-25T13:16:44.184Z,13.85
2023-02-25T13:19:25.207Z,13.53
2023-02-25T13:21:56.619Z,13.41
2023-02-25T13:24:46.805Z,13.10
2023-02-25T13:27:26.958Z,12.87
2023-02-25T13:30:04.965Z,12.85
2023-02-25T13:32:35.983Z,12.83
2023-02-25T13:35:20.894Z,12.90
2023-02-25T13:37:52.470Z,13.00
2023-02-25T13:40:27.275Z,13.03
2023-02-25T13:43:13.474Z,12.66
2023-02-25T13:45:53.271Z,12.44
2023-02-25T13:48:43.065Z,12.44
2023-02-25T13:51:30.230Z,11.62
2023-02-25T13:54:07.567Z,12.28
2023-02-25T13:56:58.517Z,12.33
2023-02-25T13:59:39.963Z,12.27
2023-02-25T14:02:39.525Z,12.35
2023-02-25T14:05:17.688Z,12.25
2023-02-25T14:08:01.860Z,12.05
2023-02-25T14:10:39.005Z,11.98
2023-02-25T14:13:17.170Z,11.53
2023-02-25T14:15:51.571Z,11.75
2023-02-25T14:18:37.965Z,11.80
2023-02-25T14:21:30.135Z,11.81
2023-02-25T14:24:00.716Z,11.76
2023-02-25T14:26:34.385Z,11.66
2023-02-25T14:29:09.227Z,11.53
2023-02-25T14:31:43.052Z,11.47
2023-02-25T14:34:28.617Z,11.34
2023-02-25T14:37:03.059Z,11.29
2023-02-25T14:39:37.106Z,11.22
2023-02-25T14:42:16.989Z,11.07
2023-02-25T14:44:46.633Z,11.00
2023-02-25T14:47:15.860Z,10.92
2023-02-25T14:49:55.993Z,10.78
2023-02-25T14:52:48.528Z,10.76
2023-02-25T14:55:42.017Z,10.35
2023-02-25T14:58:19.289Z,10.26
2023-02-25T15:01:11.994Z,10.59
2023-02-25T15:04:01.518Z,10.49
2023-02-25T15:06:53.519Z,10.45
2023-02-25T15:09:30.836Z,10.33
2023-02-25T15:12:08.067Z,10.37
2023-02-25T15:14:49.684Z,10.24
2023-02-25T15:17:34.760Z,10.23
2023-02-25T15:20:27.136Z,10.19
2023-02-25T15:23:04.979Z,10.16
2023-02-25T15:25:57.870Z,10.14
2023-02-25T15:28:41.761Z,10.12
2023-02-25T15:31:28.461Z,9.38
2023-02-25T15:34:11.846Z,10.14
2023-02-25T15:36:43.374Z,9.99
2023-02-25T15:39:12.530Z,10.02
2023-02-25T15:41:46.971Z,9.97
2023-02-25T15:44:40.603Z,9.86
2023-02-25T15:47:25.202Z,9.91
2023-02-25T15:49:53.440Z,9.86
2023-02-25T15:52:58.574Z,9.81
2023-02-25T15:55:41.594Z,9.47
2023-02-25T15:58:51.811Z,9.79
2023-02-25T16:01:42.326Z,9.73
2023-02-25T16:04:48.713Z,9.68
2023-02-25T16:07:17.553Z,9.58
2023-02-25T16:09:47.554Z,9.55
2023-02-25T16:12:16.693Z,9.46
2023-02-25T16:14:44.363Z,9.41
2023-02-25T16:17:16.736Z,9.38
2023-02-25T16:19:44.497Z,8.85
2023-02-25T16:22:14.633Z,9.08
2023-02-25T16:24:43.741Z,9.31
2023-02-25T16:27:14.994Z,9.28
2023-02-25T16:29:53.142Z,9.26
2023-02-25T16:32:26.975Z,9.20
2023-02-25T16:34:57.200Z,9.05
2023-02-25T16:37:28.278Z,9.12
2023-02-25T16:39:56.140Z,9.03
2023-02-25T16:42:23.917Z,9.02
2023-02-25T16:44:59.715Z,8.78
2023-02-25T16:47:28.397Z,8.91
2023-02-25T16:49:56.612Z,8.88
2023-02-25T16:52:27.894Z,8.53
2023-02-25T16:54:57.601Z,8.78
2023-02-25T16:57:25.826Z,8.63
2023-02-25T17:00:14.275Z,8.64
2023-02-25T17:02:47.587Z,8.11
2023-02-25T17:05:26.526Z,8.56
2023-02-25T17:07:59.515Z,8.48
2023-02-25T17:10:28.907Z,8.39
2023-02-25T17:12:56.590Z,8.39
2023-02-25T17:15:27.193Z,8.11
2023-02-25T17:17:58.420Z,8.31
2023-02-25T17:20:27.949Z,8.22
2023-02-25T17:22:56.221Z,8.20
2023-02-25T17:25:24.074Z,8.16
2023-02-25T17:27:51.782Z,8.13
2023-02-25T17:30:39.049Z,7.85
2023-02-25T17:33:06.976Z,7.83
2023-02-25T17:35:35.043Z,7.99
2023-02-25T17:38:02.795Z,7.90
2023-02-25T17:40:30.577Z,7.94
2023-02-25T17:43:18.960Z,7.92
2023-02-25T17:45:51.048Z,7.64
2023-02-25T17:48:19.548Z,7.59
2023-02-25T17:50:53.298Z,7.81
2023-02-25T17:53:29.856Z,7.78
2023-02-25T17:55:57.663Z,7.74
2023-02-25T17:58:25.320Z,7.72
2023-02-25T18:01:01.725Z,7.69
2023-02-25T18:03:30.678Z,7.70
2023-02-25T18:06:00.211Z,7.44
2023-02-25T18:08:29.138Z,7.62
2023-02-25T18:10:58.966Z,7.58
2023-02-25T18:13:31.208Z,7.18
2023-02-25T18:16:39.035Z,7.52
2023-02-25T18:19:26.970Z,7.43
2023-02-25T18:21:54.670Z,7.45
2023-02-25T18:24:30.900Z,7.43
2023-02-25T18:27:21.970Z,7.38
2023-02-25T18:29:49.721Z,7.00
2023-02-25T18:32:18.936Z,7.34
2023-02-25T18:34:46.657Z,7.32
2023-02-25T18:37:17.396Z,7.20
2023-02-25T18:42:16.557Z,7.22
2023-02-25T18:44:44.523Z,7.12
2023-02-25T18:47:12.904Z,7.17
2023-02-25T18:49:42.113Z,7.16
2023-02-25T18:52:14.435Z,7.11
2023-02-25T18:54:42.958Z,6.97
2023-02-25T18:57:16.963Z,7.08
2023-02-25T18:59:46.016Z,7.06
2023-02-25T19:02:25.367Z,6.77
2023-02-25T19:04:57.419Z,7.03
2023-02-25T19:07:26.461Z,6.92
2023-02-25T19:09:56.439Z,6.91
2023-02-25T19:12:24.701Z,6.94
2023-02-25T19:14:55.003Z,6.91
2023-02-25T19:17:22.745Z,6.91
2023-02-25T19:19:50.482Z,6.87
2023-02-25T19:22:20.163Z,6.77
2023-02-25T19:24:48.434Z,6.80
2023-02-25T19:27:21.798Z,6.88
2023-02-25T19:29:50.210Z,6.89
2023-02-25T19:32:21.466Z,6.93
2023-02-25T19:34:49.601Z,6.96
2023-02-25T19:37:21.171Z,6.93
2023-02-25T19:39:48.886Z,6.87
2023-02-25T19:42:16.657Z,6.80
2023-02-25T19:44:44.312Z,6.79
2023-02-25T19:47:11.992Z,6.75
2023-02-25T19:49:39.753Z,6.71
2023-02-25T19:52:07.480Z,6.66
2023-02-25T19:54:38.929Z,6.53
2023-02-25T19:57:06.818Z,6.57
2023-02-25T19:59:34.820Z,6.56
2023-02-25T20:02:02.524Z,6.34
2023-02-25T20:04:30.301Z,6.51
2023-02-25T20:06:58.834Z,6.46
2023-02-25T20:09:26.517Z,6.43
2023-02-25T20:11:55.585Z,6.30
2023-02-25T20:14:23.982Z,6.40
2023-02-25T20:16:51.735Z,6.36
2023-02-25T20:19:19.424Z,6.24
2023-02-25T20:21:47.095Z,6.31
2023-02-25T20:24:14.750Z,6.27
2023-02-25T20:26:42.428Z,6.26
2023-02-25T20:29:11.511Z,6.22
2023-02-25T20:31:39.873Z,6.20
2023-02-25T20:34:10.725Z,5.01
2023-02-25T20:36:39.891Z,6.12
2023-02-25T20:39:17.449Z,6.08
2023-02-25T20:41:45.692Z,6.08
2023-02-25T20:44:14.924Z,6.05
2023-02-25T20:46:44.026Z,6.03
2023-02-25T20:49:13.529Z,5.98
2023-02-25T20:51:42.400Z,5.96
2023-02-25T20:54:10.392Z,5.92
2023-02-25T20:56:38.077Z,5.72
2023-02-25T20:59:06.022Z,5.87
2023-02-25T21:01:35.135Z,5.65
2023-02-25T21:04:03.306Z,5.68
2023-02-25T21:06:31.095Z,5.82
2023-02-25T21:08:59.973Z,5.76
2023-02-25T21:11:27.969Z,5.78
2023-02-25T21:14:09.237Z,5.76
2023-02-25T21:16:38.556Z,5.74
2023-02-25T21:19:06.336Z,5.72
2023-02-25T21:21:37.949Z,5.36
2023-02-25T21:24:05.896Z,5.69
2023-02-25T21:26:33.703Z,5.69
2023-02-25T21:29:01.739Z,5.68
2023-02-25T21:31:29.458Z,5.68
2023-02-25T21:33:59.513Z,5.53
2023-02-25T21:36:27.362Z,5.63
2023-02-25T21:38:55.086Z,5.64
2023-02-25T21:41:22.760Z,5.56
2023-02-25T21:43:53.894Z,5.59
2023-02-25T21:46:21.608Z,5.55
2023-02-25T21:48:50.594Z,5.35
2023-02-25T21:51:20.835Z,5.56
2023-02-25T21:53:48.527Z,5.55
2023-02-25T21:56:17.576Z,5.33
2023-02-25T21:58:45.711Z,5.53
2023-02-25T22:01:17.410Z,5.21
2023-02-25T22:03:45.748Z,5.32
2023-02-25T22:06:13.944Z,5.36
2023-02-25T22:08:44.170Z,5.42
2023-02-25T22:11:12.934Z,5.44
2023-02-25T22:13:40.707Z,5.41
2023-02-25T22:16:08.618Z,5.34
2023-02-25T22:18:36.442Z,5.39
2023-02-25T22:21:05.920Z,4.98
2023-02-25T22:23:33.642Z,5.16
2023-02-25T22:26:04.132Z,5.34
2023-02-25T22:28:32.060Z,5.34
2023-02-25T22:30:59.835Z,5.30
2023-02-25T22:33:30.726Z,5.30
2023-02-25T22:35:59.653Z,5.29
2023-02-25T22:38:28.431Z,5.12
2023-02-25T22:40:56.135Z,5.19
2023-02-25T22:43:25.729Z,5.24
2023-02-25T22:45:53.419Z,5.13
2023-02-25T22:48:21.238Z,5.18
2023-02-25T22:50:50.101Z,4.52
2023-02-25T22:53:18.600Z,5.13
2023-02-25T22:55:46.291Z,5.14
2023-02-25T22:58:14.091Z,5.13
2023-02-25T23:00:43.617Z,5.10
2023-02-25T23:03:12.914Z,4.97
2023-02-25T23:05:40.605Z,4.62
2023-02-25T23:08:08.360Z,5.05
2023-02-25T23:10:36.121Z,5.03
2023-02-25T23:13:07.823Z,4.65
2023-02-25T23:15:35.929Z,5.00
2023-02-25T23:18:05.834Z,4.97
2023-02-25T23:20:34.209Z,4.95
2023-02-25T23:23:04.667Z,4.79
2023-02-25T23:25:32.488Z,4.85
2023-02-25T23:28:00.430Z,4.80
2023-02-25T23:30:28.408Z,4.92
2023-02-25T23:32:57.507Z,4.94
2023-02-25T23:35:26.732Z,4.94
2023-02-25T23:37:55.503Z,4.97
2023-02-25T23:40:23.775Z,4.92
2023-02-25T23:42:51.518Z,4.99
2023-02-25T23:45:19.625Z,5.05
2023-02-25T23:47:47.440Z,4.78
2023-02-25T23:50:16.129Z,5.05
2023-02-25T23:52:45.235Z,5.17
2023-02-25T23:55:12.897Z,5.19
2023-02-25T23:57:40.738Z,5.18
